sensor_id;sensor_type;location;lat;lon;timestamp;temperature;humidity
14049;DHT22;7099;53.922;10.728;2023-02-12T00:01:25;8.20;79.80
14049;DHT22;7099;53.922;10.728;2023-02-12T00:05:32;8.20;79.80
14049;DHT22;7099;53.922;10.728;2023-02-12T00:09:38;8.20;79.70
14049;DHT22;7099;53.922;10.728;2023-02-12T00:13:44;8.20;79.60
14049;DHT22;7099;53.922;10.728;2023-02-12T00:17:49;8.20;79.70
14049;DHT22;7099;53.922;10.728;2023-02-12T00:21:55;8.20;79.90
14049;DHT22;7099;53.922;10.728;2023-02-12T00:26:04;8.20;80.10
14049;DHT22;7099;53.922;10.728;2023-02-12T00:30:13;8.20;80.30
14049;DHT22;7099;53.922;10.728;2023-02-12T00:34:19;8.10;80.10
14049;DHT22;7099;53.922;10.728;2023-02-12T00:38:24;8.10;80.30
14049;DHT22;7099;53.922;10.728;2023-02-12T00:42:30;8.10;80.30
14049;DHT22;7099;53.922;10.728;2023-02-12T00:46:35;8.00;80.10
14049;DHT22;7099;53.922;10.728;2023-02-12T00:50:44;8.00;80.20
14049;DHT22;7099;53.922;10.728;2023-02-12T00:54:50;8.00;80.50
14049;DHT22;7099;53.922;10.728;2023-02-12T00:58:56;8.00;80.50
14049;DHT22;7099;53.922;10.728;2023-02-12T01:03:02;7.90;80.50
14049;DHT22;7099;53.922;10.728;2023-02-12T01:07:08;8.00;80.60
14049;DHT22;7099;53.922;10.728;2023-02-12T01:11:14;7.90;80.80
14049;DHT22;7099;53.922;10.728;2023-02-12T01:15:19;7.80;80.80
14049;DHT22;7099;53.922;10.728;2023-02-12T01:19:25;7.90;81.00
14049;DHT22;7099;53.922;10.728;2023-02-12T01:23:32;7.80;80.90
14049;DHT22;7099;53.922;10.728;2023-02-12T01:27:38;7.90;80.80
14049;DHT22;7099;53.922;10.728;2023-02-12T01:31:43;7.80;80.80
14049;DHT22;7099;53.922;10.728;2023-02-12T01:35:49;7.80;80.90
14049;DHT22;7099;53.922;10.728;2023-02-12T01:39:54;7.70;80.80
14049;DHT22;7099;53.922;10.728;2023-02-12T01:48:22;7.70;81.60
14049;DHT22;7099;53.922;10.728;2023-02-12T01:52:33;7.60;81.30
14049;DHT22;7099;53.922;10.728;2023-02-12T01:56:41;7.70;81.90
14049;DHT22;7099;53.922;10.728;2023-02-12T02:00:47;7.60;81.30
14049;DHT22;7099;53.922;10.728;2023-02-12T02:04:59;7.60;81.20
14049;DHT22;7099;53.922;10.728;2023-02-12T02:09:07;7.70;81.30
14049;DHT22;7099;53.922;10.728;2023-02-12T02:13:13;7.70;81.40
14049;DHT22;7099;53.922;10.728;2023-02-12T02:18:01;7.60;81.40
14049;DHT22;7099;53.922;10.728;2023-02-12T02:27:27;7.60;81.70
14049;DHT22;7099;53.922;10.728;2023-02-12T02:31:46;7.60;81.90
14049;DHT22;7099;53.922;10.728;2023-02-12T02:36:22;7.60;81.40
14049;DHT22;7099;53.922;10.728;2023-02-12T02:40:48;7.60;81.20
14049;DHT22;7099;53.922;10.728;2023-02-12T02:49:32;7.60;81.10
14049;DHT22;7099;53.922;10.728;2023-02-12T02:53:46;7.70;81.10
14049;DHT22;7099;53.922;10.728;2023-02-12T02:57:57;7.60;80.90
14049;DHT22;7099;53.922;10.728;2023-02-12T03:02:32;7.60;80.90
14049;DHT22;7099;53.922;10.728;2023-02-12T03:06:55;7.60;81.00
14049;DHT22;7099;53.922;10.728;2023-02-12T03:11:13;7.60;80.80
14049;DHT22;7099;53.922;10.728;2023-02-12T03:15:37;7.60;80.70
14049;DHT22;7099;53.922;10.728;2023-02-12T03:19:57;7.60;80.60
14049;DHT22;7099;53.922;10.728;2023-02-12T03:28:40;7.60;80.70
14049;DHT22;7099;53.922;10.728;2023-02-12T03:33:01;7.60;80.40
14049;DHT22;7099;53.922;10.728;2023-02-12T03:37:27;7.60;80.60
14049;DHT22;7099;53.922;10.728;2023-02-12T03:42:09;7.50;80.50
14049;DHT22;7099;53.922;10.728;2023-02-12T03:55:18;7.50;80.50
14049;DHT22;7099;53.922;10.728;2023-02-12T03:59:24;7.60;80.40
14049;DHT22;7099;53.922;10.728;2023-02-12T04:03:30;7.60;80.40
14049;DHT22;7099;53.922;10.728;2023-02-12T04:07:36;7.50;80.20
14049;DHT22;7099;53.922;10.728;2023-02-12T04:16:32;7.60;80.40
14049;DHT22;7099;53.922;10.728;2023-02-12T04:25:56;7.50;80.60
14049;DHT22;7099;53.922;10.728;2023-02-12T04:39:26;7.50;80.20
14049;DHT22;7099;53.922;10.728;2023-02-12T04:43:35;7.40;80.60
14049;DHT22;7099;53.922;10.728;2023-02-12T04:47:41;7.40;80.10
14049;DHT22;7099;53.922;10.728;2023-02-12T04:51:47;7.50;80.10
14049;DHT22;7099;53.922;10.728;2023-02-12T04:55:54;7.50;80.20
14049;DHT22;7099;53.922;10.728;2023-02-12T05:00:00;7.50;80.00
14049;DHT22;7099;53.922;10.728;2023-02-12T05:04:07;7.50;79.90
14049;DHT22;7099;53.922;10.728;2023-02-12T05:08:13;7.50;80.50
14049;DHT22;7099;53.922;10.728;2023-02-12T05:12:18;7.50;80.00
14049;DHT22;7099;53.922;10.728;2023-02-12T05:16:24;7.50;79.90
14049;DHT22;7099;53.922;10.728;2023-02-12T05:20:30;7.50;79.70
14049;DHT22;7099;53.922;10.728;2023-02-12T05:24:36;7.50;79.70
14049;DHT22;7099;53.922;10.728;2023-02-12T05:28:41;7.40;79.80
14049;DHT22;7099;53.922;10.728;2023-02-12T05:32:47;7.50;79.90
14049;DHT22;7099;53.922;10.728;2023-02-12T05:36:53;7.50;80.00
14049;DHT22;7099;53.922;10.728;2023-02-12T05:41:07;7.50;79.90
14049;DHT22;7099;53.922;10.728;2023-02-12T05:45:14;7.50;79.90
14049;DHT22;7099;53.922;10.728;2023-02-12T05:49:20;7.60;79.80
14049;DHT22;7099;53.922;10.728;2023-02-12T05:53:25;7.50;80.30
14049;DHT22;7099;53.922;10.728;2023-02-12T05:57:31;7.50;79.70
14049;DHT22;7099;53.922;10.728;2023-02-12T06:01:39;7.60;79.80
14049;DHT22;7099;53.922;10.728;2023-02-12T06:05:50;7.50;79.70
14049;DHT22;7099;53.922;10.728;2023-02-12T06:09:55;7.50;79.70
14049;DHT22;7099;53.922;10.728;2023-02-12T06:14:05;7.50;79.70
14049;DHT22;7099;53.922;10.728;2023-02-12T06:18:12;7.50;79.70
14049;DHT22;7099;53.922;10.728;2023-02-12T06:22:19;7.50;79.70
14049;DHT22;7099;53.922;10.728;2023-02-12T06:26:25;7.50;79.70
14049;DHT22;7099;53.922;10.728;2023-02-12T06:30:33;7.50;79.70
14049;DHT22;7099;53.922;10.728;2023-02-12T06:34:39;7.50;79.70
14049;DHT22;7099;53.922;10.728;2023-02-12T06:38:45;7.50;79.70
14049;DHT22;7099;53.922;10.728;2023-02-12T06:42:51;7.60;79.80
14049;DHT22;7099;53.922;10.728;2023-02-12T06:46:57;7.60;79.80
14049;DHT22;7099;53.922;10.728;2023-02-12T06:51:08;7.50;79.70
14049;DHT22;7099;53.922;10.728;2023-02-12T06:55:16;7.60;79.80
14049;DHT22;7099;53.922;10.728;2023-02-12T06:59:21;7.60;79.80
14049;DHT22;7099;53.922;10.728;2023-02-12T07:03:27;7.60;79.80
14049;DHT22;7099;53.922;10.728;2023-02-12T07:07:32;7.60;79.80
14049;DHT22;7099;53.922;10.728;2023-02-12T07:11:38;7.60;79.80
14049;DHT22;7099;53.922;10.728;2023-02-12T07:15:44;7.60;80.30
14049;DHT22;7099;53.922;10.728;2023-02-12T07:19:49;7.60;80.10
14049;DHT22;7099;53.922;10.728;2023-02-12T07:23:55;7.60;80.70
14049;DHT22;7099;53.922;10.728;2023-02-12T07:28:00;7.70;80.30
14049;DHT22;7099;53.922;10.728;2023-02-12T07:32:06;7.70;80.40
14049;DHT22;7099;53.922;10.728;2023-02-12T07:36:17;7.70;80.60
14049;DHT22;7099;53.922;10.728;2023-02-12T07:40:23;7.70;80.70
14049;DHT22;7099;53.922;10.728;2023-02-12T07:44:28;7.70;80.80
14049;DHT22;7099;53.922;10.728;2023-02-12T07:48:35;7.70;80.70
14049;DHT22;7099;53.922;10.728;2023-02-12T07:52:41;7.80;80.80
14049;DHT22;7099;53.922;10.728;2023-02-12T07:56:46;7.80;80.90
14049;DHT22;7099;53.922;10.728;2023-02-12T08:00:52;7.90;81.00
14049;DHT22;7099;53.922;10.728;2023-02-12T08:04:58;7.90;80.80
14049;DHT22;7099;53.922;10.728;2023-02-12T08:09:06;7.90;80.80
14049;DHT22;7099;53.922;10.728;2023-02-12T08:13:14;7.90;80.90
14049;DHT22;7099;53.922;10.728;2023-02-12T08:17:19;7.90;80.80
14049;DHT22;7099;53.922;10.728;2023-02-12T08:21:26;8.00;80.90
14049;DHT22;7099;53.922;10.728;2023-02-12T08:25:32;8.00;80.90
14049;DHT22;7099;53.922;10.728;2023-02-12T08:29:37;8.10;80.90
14049;DHT22;7099;53.922;10.728;2023-02-12T08:33:44;8.00;80.80
14049;DHT22;7099;53.922;10.728;2023-02-12T08:37:51;8.10;80.80
14049;DHT22;7099;53.922;10.728;2023-02-12T08:41:58;8.10;80.80
14049;DHT22;7099;53.922;10.728;2023-02-12T08:50:14;8.20;80.90
14049;DHT22;7099;53.922;10.728;2023-02-12T08:54:22;8.20;80.90
14049;DHT22;7099;53.922;10.728;2023-02-12T08:58:30;8.30;80.80
14049;DHT22;7099;53.922;10.728;2023-02-12T09:02:36;8.40;80.70
14049;DHT22;7099;53.922;10.728;2023-02-12T09:06:41;8.40;80.40
14049;DHT22;7099;53.922;10.728;2023-02-12T09:10:47;8.40;80.30
14049;DHT22;7099;53.922;10.728;2023-02-12T09:14:53;8.40;80.60
14049;DHT22;7099;53.922;10.728;2023-02-12T09:18:59;8.60;80.40
14049;DHT22;7099;53.922;10.728;2023-02-12T09:23:06;8.60;80.50
14049;DHT22;7099;53.922;10.728;2023-02-12T09:27:12;8.60;80.20
14049;DHT22;7099;53.922;10.728;2023-02-12T09:31:20;8.70;80.10
14049;DHT22;7099;53.922;10.728;2023-02-12T09:35:33;8.80;80.10
14049;DHT22;7099;53.922;10.728;2023-02-12T09:39:40;8.80;79.50
14049;DHT22;7099;53.922;10.728;2023-02-12T09:48:32;8.90;79.40
14049;DHT22;7099;53.922;10.728;2023-02-12T09:52:43;9.00;79.10
14049;DHT22;7099;53.922;10.728;2023-02-12T09:57:00;9.00;79.60
14049;DHT22;7099;53.922;10.728;2023-02-12T10:01:11;9.10;79.30
14049;DHT22;7099;53.922;10.728;2023-02-12T10:05:27;9.20;79.10
14049;DHT22;7099;53.922;10.728;2023-02-12T10:09:59;9.20;78.90
14049;DHT22;7099;53.922;10.728;2023-02-12T10:19:05;9.30;78.00
14049;DHT22;7099;53.922;10.728;2023-02-12T10:28:34;9.50;78.50
14049;DHT22;7099;53.922;10.728;2023-02-12T10:32:44;9.60;77.60
14049;DHT22;7099;53.922;10.728;2023-02-12T10:36:55;9.60;77.60
14049;DHT22;7099;53.922;10.728;2023-02-12T10:41:06;9.70;77.50
14049;DHT22;7099;53.922;10.728;2023-02-12T10:45:14;9.70;77.40
14049;DHT22;7099;53.922;10.728;2023-02-12T10:49:24;9.80;77.00
14049;DHT22;7099;53.922;10.728;2023-02-12T10:53:41;9.90;77.30
14049;DHT22;7099;53.922;10.728;2023-02-12T10:57:47;9.90;76.50
14049;DHT22;7099;53.922;10.728;2023-02-12T11:01:53;10.00;76.60
14049;DHT22;7099;53.922;10.728;2023-02-12T11:06:29;10.00;76.40
14049;DHT22;7099;53.922;10.728;2023-02-12T11:10:39;10.10;76.00
14049;DHT22;7099;53.922;10.728;2023-02-12T11:14:49;10.20;76.60
14049;DHT22;7099;53.922;10.728;2023-02-12T11:19:17;10.20;76.40
14049;DHT22;7099;53.922;10.728;2023-02-12T11:23:31;10.30;75.90
14049;DHT22;7099;53.922;10.728;2023-02-12T11:27:44;10.30;75.60
14049;DHT22;7099;53.922;10.728;2023-02-12T11:32:05;10.40;75.40
14049;DHT22;7099;53.922;10.728;2023-02-12T11:36:25;10.40;75.30
14049;DHT22;7099;53.922;10.728;2023-02-12T11:40:32;10.40;75.00
14049;DHT22;7099;53.922;10.728;2023-02-12T11:44:39;10.40;75.00
14049;DHT22;7099;53.922;10.728;2023-02-12T11:48:47;10.40;75.00
14049;DHT22;7099;53.922;10.728;2023-02-12T11:52:59;10.40;75.50
14049;DHT22;7099;53.922;10.728;2023-02-12T12:01:41;10.50;75.50
14049;DHT22;7099;53.922;10.728;2023-02-12T12:06:33;10.50;74.70
14049;DHT22;7099;53.922;10.728;2023-02-12T12:15:38;10.70;74.40
14049;DHT22;7099;53.922;10.728;2023-02-12T12:20:16;10.70;73.80
14049;DHT22;7099;53.922;10.728;2023-02-12T12:24:47;10.70;74.20
14049;DHT22;7099;53.922;10.728;2023-02-12T12:29:23;10.80;74.10
14049;DHT22;7099;53.922;10.728;2023-02-12T12:33:47;10.70;73.90
14049;DHT22;7099;53.922;10.728;2023-02-12T12:38:02;10.70;74.20
14049;DHT22;7099;53.922;10.728;2023-02-12T12:52:03;10.80;75.30
14049;DHT22;7099;53.922;10.728;2023-02-12T12:56:35;10.80;74.90
14049;DHT22;7099;53.922;10.728;2023-02-12T13:00:58;10.70;74.80
14049;DHT22;7099;53.922;10.728;2023-02-12T13:05:46;10.70;75.30
14049;DHT22;7099;53.922;10.728;2023-02-12T13:10:52;10.70;75.60
14049;DHT22;7099;53.922;10.728;2023-02-12T13:19:53;10.70;76.60
14049;DHT22;7099;53.922;10.728;2023-02-12T13:28:57;10.80;76.70
14049;DHT22;7099;53.922;10.728;2023-02-12T13:33:25;10.70;76.50
14049;DHT22;7099;53.922;10.728;2023-02-12T13:37:42;10.70;76.40
14049;DHT22;7099;53.922;10.728;2023-02-12T13:55:58;10.60;76.80
14049;DHT22;7099;53.922;10.728;2023-02-12T14:13:58;10.60;77.70
14049;DHT22;7099;53.922;10.728;2023-02-12T14:26:39;10.50;76.90
14049;DHT22;7099;53.922;10.728;2023-02-12T14:30:44;10.50;77.20
14049;DHT22;7099;53.922;10.728;2023-02-12T14:34:50;10.50;77.10
14049;DHT22;7099;53.922;10.728;2023-02-12T14:38:59;10.40;77.10
14049;DHT22;7099;53.922;10.728;2023-02-12T14:43:35;10.40;76.90
14049;DHT22;7099;53.922;10.728;2023-02-12T14:48:01;10.30;76.40
14049;DHT22;7099;53.922;10.728;2023-02-12T14:56:21;10.20;76.40
14049;DHT22;7099;53.922;10.728;2023-02-12T15:00:39;10.20;76.50
14049;DHT22;7099;53.922;10.728;2023-02-12T15:04:45;10.10;76.30
14049;DHT22;7099;53.922;10.728;2023-02-12T15:09:01;10.10;76.40
14049;DHT22;7099;53.922;10.728;2023-02-12T15:13:23;10.00;76.30
14049;DHT22;7099;53.922;10.728;2023-02-12T15:17:38;10.00;76.20
14049;DHT22;7099;53.922;10.728;2023-02-12T15:21:45;10.00;76.20
14049;DHT22;7099;53.922;10.728;2023-02-12T15:25:51;10.00;76.00
14049;DHT22;7099;53.922;10.728;2023-02-12T15:29:57;9.90;76.00
14049;DHT22;7099;53.922;10.728;2023-02-12T15:34:03;9.90;75.90
14049;DHT22;7099;53.922;10.728;2023-02-12T15:38:24;9.80;75.50
14049;DHT22;7099;53.922;10.728;2023-02-12T15:42:36;9.80;75.00
14049;DHT22;7099;53.922;10.728;2023-02-12T15:55:37;9.70;75.40
14049;DHT22;7099;53.922;10.728;2023-02-12T15:59:52;9.60;75.20
14049;DHT22;7099;53.922;10.728;2023-02-12T16:04:07;9.60;75.30
14049;DHT22;7099;53.922;10.728;2023-02-12T16:08:15;9.50;75.40
14049;DHT22;7099;53.922;10.728;2023-02-12T16:12:24;9.50;75.50
14049;DHT22;7099;53.922;10.728;2023-02-12T16:16:45;9.50;75.30
14049;DHT22;7099;53.922;10.728;2023-02-12T16:21:16;9.50;75.30
14049;DHT22;7099;53.922;10.728;2023-02-12T16:25:25;9.40;75.20
14049;DHT22;7099;53.922;10.728;2023-02-12T16:29:37;9.30;75.70
14049;DHT22;7099;53.922;10.728;2023-02-12T16:33:50;9.30;75.70
14049;DHT22;7099;53.922;10.728;2023-02-12T16:42:28;9.30;75.80
14049;DHT22;7099;53.922;10.728;2023-02-12T16:46:47;9.20;75.80
14049;DHT22;7099;53.922;10.728;2023-02-12T16:50:56;9.20;75.90
14049;DHT22;7099;53.922;10.728;2023-02-12T16:55:04;9.20;75.90
14049;DHT22;7099;53.922;10.728;2023-02-12T16:59:14;9.10;75.80
14049;DHT22;7099;53.922;10.728;2023-02-12T17:03:19;9.20;75.90
14049;DHT22;7099;53.922;10.728;2023-02-12T17:07:25;9.10;75.70
14049;DHT22;7099;53.922;10.728;2023-02-12T17:11:35;9.10;75.90
14049;DHT22;7099;53.922;10.728;2023-02-12T17:15:52;9.10;75.90
14049;DHT22;7099;53.922;10.728;2023-02-12T17:20:03;9.00;75.90
14049;DHT22;7099;53.922;10.728;2023-02-12T17:24:35;9.00;75.90
14049;DHT22;7099;53.922;10.728;2023-02-12T17:28:41;9.00;76.00
14049;DHT22;7099;53.922;10.728;2023-02-12T17:32:46;8.90;76.50
14049;DHT22;7099;53.922;10.728;2023-02-12T17:36:55;8.90;76.20
14049;DHT22;7099;53.922;10.728;2023-02-12T17:41:00;8.90;76.20
14049;DHT22;7099;53.922;10.728;2023-02-12T17:45:06;8.90;76.30
14049;DHT22;7099;53.922;10.728;2023-02-12T17:49:12;8.90;76.40
14049;DHT22;7099;53.922;10.728;2023-02-12T17:53:18;8.80;76.40
14049;DHT22;7099;53.922;10.728;2023-02-12T17:57:23;8.80;76.50
14049;DHT22;7099;53.922;10.728;2023-02-12T18:01:29;8.80;76.60
14049;DHT22;7099;53.922;10.728;2023-02-12T18:05:42;8.80;76.70
14049;DHT22;7099;53.922;10.728;2023-02-12T18:09:47;8.80;76.80
14049;DHT22;7099;53.922;10.728;2023-02-12T18:13:54;8.80;76.80
14049;DHT22;7099;53.922;10.728;2023-02-12T18:18:00;8.70;76.80
14049;DHT22;7099;53.922;10.728;2023-02-12T18:22:06;8.70;76.80
14049;DHT22;7099;53.922;10.728;2023-02-12T18:26:14;8.70;77.00
14049;DHT22;7099;53.922;10.728;2023-02-12T18:30:20;8.70;77.00
14049;DHT22;7099;53.922;10.728;2023-02-12T18:34:26;8.60;76.90
14049;DHT22;7099;53.922;10.728;2023-02-12T18:38:33;8.70;77.00
14049;DHT22;7099;53.922;10.728;2023-02-12T18:42:39;8.60;76.90
14049;DHT22;7099;53.922;10.728;2023-02-12T18:46:44;8.60;77.00
14049;DHT22;7099;53.922;10.728;2023-02-12T18:50:50;8.60;77.00
14049;DHT22;7099;53.922;10.728;2023-02-12T18:54:59;8.60;76.90
14049;DHT22;7099;53.922;10.728;2023-02-12T18:59:05;8.50;77.00
14049;DHT22;7099;53.922;10.728;2023-02-12T19:03:12;8.50;77.10
14049;DHT22;7099;53.922;10.728;2023-02-12T19:07:17;8.50;77.20
14049;DHT22;7099;53.922;10.728;2023-02-12T19:11:23;8.50;77.10
14049;DHT22;7099;53.922;10.728;2023-02-12T19:15:29;8.50;77.80
14049;DHT22;7099;53.922;10.728;2023-02-12T19:19:34;8.50;77.30
14049;DHT22;7099;53.922;10.728;2023-02-12T19:23:40;8.50;77.20
14049;DHT22;7099;53.922;10.728;2023-02-12T19:27:46;8.40;77.20
14049;DHT22;7099;53.922;10.728;2023-02-12T19:31:51;8.40;77.40
14049;DHT22;7099;53.922;10.728;2023-02-12T19:35:57;8.50;77.40
14049;DHT22;7099;53.922;10.728;2023-02-12T19:40:03;8.40;77.40
14049;DHT22;7099;53.922;10.728;2023-02-12T19:44:15;8.30;77.30
14049;DHT22;7099;53.922;10.728;2023-02-12T19:48:23;8.30;78.10
14049;DHT22;7099;53.922;10.728;2023-02-12T19:52:29;8.30;77.60
14049;DHT22;7099;53.922;10.728;2023-02-12T19:56:34;8.30;77.60
14049;DHT22;7099;53.922;10.728;2023-02-12T20:00:40;8.30;77.50
14049;DHT22;7099;53.922;10.728;2023-02-12T20:04:46;8.30;77.50
14049;DHT22;7099;53.922;10.728;2023-02-12T20:08:51;8.20;77.40
14049;DHT22;7099;53.922;10.728;2023-02-12T20:12:57;8.20;77.60
14049;DHT22;7099;53.922;10.728;2023-02-12T20:17:03;8.30;77.60
14049;DHT22;7099;53.922;10.728;2023-02-12T20:21:23;8.20;77.60
14049;DHT22;7099;53.922;10.728;2023-02-12T20:25:29;8.20;77.70
14049;DHT22;7099;53.922;10.728;2023-02-12T20:29:35;8.20;77.60
14049;DHT22;7099;53.922;10.728;2023-02-12T20:33:41;8.10;77.60
14049;DHT22;7099;53.922;10.728;2023-02-12T20:37:47;8.20;77.50
14049;DHT22;7099;53.922;10.728;2023-02-12T20:41:52;8.20;77.50
14049;DHT22;7099;53.922;10.728;2023-02-12T20:46:16;8.20;77.50
14049;DHT22;7099;53.922;10.728;2023-02-12T20:50:23;8.20;77.40
14049;DHT22;7099;53.922;10.728;2023-02-12T20:54:29;8.20;77.20
14049;DHT22;7099;53.922;10.728;2023-02-12T20:58:35;8.10;77.30
14049;DHT22;7099;53.922;10.728;2023-02-12T21:02:42;8.10;77.30
14049;DHT22;7099;53.922;10.728;2023-02-12T21:06:48;8.10;77.20
14049;DHT22;7099;53.922;10.728;2023-02-12T21:11:01;8.10;77.20
14049;DHT22;7099;53.922;10.728;2023-02-12T21:15:13;8.10;77.20
14049;DHT22;7099;53.922;10.728;2023-02-12T21:19:19;8.00;77.10
14049;DHT22;7099;53.922;10.728;2023-02-12T21:23:25;8.10;77.20
14049;DHT22;7099;53.922;10.728;2023-02-12T21:27:31;8.10;77.20
14049;DHT22;7099;53.922;10.728;2023-02-12T21:31:39;8.00;77.00
14049;DHT22;7099;53.922;10.728;2023-02-12T21:35:46;8.00;77.10
14049;DHT22;7099;53.922;10.728;2023-02-12T21:39:52;8.00;77.10
14049;DHT22;7099;53.922;10.728;2023-02-12T21:44:17;8.00;77.10
14049;DHT22;7099;53.922;10.728;2023-02-12T21:48:24;8.00;77.20
14049;DHT22;7099;53.922;10.728;2023-02-12T21:52:29;8.00;77.10
14049;DHT22;7099;53.922;10.728;2023-02-12T21:56:37;8.00;76.90
14049;DHT22;7099;53.922;10.728;2023-02-12T22:00:43;7.90;76.90
14049;DHT22;7099;53.922;10.728;2023-02-12T22:04:52;7.90;76.80
14049;DHT22;7099;53.922;10.728;2023-02-12T22:09:03;7.90;76.80
14049;DHT22;7099;53.922;10.728;2023-02-12T22:13:12;7.90;76.60
14049;DHT22;7099;53.922;10.728;2023-02-12T22:17:17;7.90;77.20
14049;DHT22;7099;53.922;10.728;2023-02-12T22:21:24;8.00;76.60
14049;DHT22;7099;53.922;10.728;2023-02-12T22:25:32;7.90;76.50
14049;DHT22;7099;53.922;10.728;2023-02-12T22:29:37;7.90;76.40
14049;DHT22;7099;53.922;10.728;2023-02-12T22:33:43;7.90;76.30
14049;DHT22;7099;53.922;10.728;2023-02-12T22:37:49;7.90;76.40
14049;DHT22;7099;53.922;10.728;2023-02-12T22:41:55;7.90;76.30
14049;DHT22;7099;53.922;10.728;2023-02-12T22:46:00;7.90;76.20
14049;DHT22;7099;53.922;10.728;2023-02-12T22:50:06;7.90;76.10
14049;DHT22;7099;53.922;10.728;2023-02-12T22:54:14;7.90;76.00
14049;DHT22;7099;53.922;10.728;2023-02-12T22:58:20;7.90;75.80
14049;DHT22;7099;53.922;10.728;2023-02-12T23:02:28;7.90;75.80
14049;DHT22;7099;53.922;10.728;2023-02-12T23:06:34;7.90;75.60
14049;DHT22;7099;53.922;10.728;2023-02-12T23:10:40;7.90;75.60
14049;DHT22;7099;53.922;10.728;2023-02-12T23:14:45;7.90;75.50
14049;DHT22;7099;53.922;10.728;2023-02-12T23:18:59;7.80;75.30
14049;DHT22;7099;53.922;10.728;2023-02-12T23:23:05;7.90;75.20
14049;DHT22;7099;53.922;10.728;2023-02-12T23:27:11;7.90;75.10
14049;DHT22;7099;53.922;10.728;2023-02-12T23:31:17;7.90;75.00
14049;DHT22;7099;53.922;10.728;2023-02-12T23:35:22;7.80;74.80
14049;DHT22;7099;53.922;10.728;2023-02-12T23:39:28;7.90;74.90
14049;DHT22;7099;53.922;10.728;2023-02-12T23:43:33;7.80;74.80
14049;DHT22;7099;53.922;10.728;2023-02-12T23:47:39;7.80;74.80
14049;DHT22;7099;53.922;10.728;2023-02-12T23:51:45;7.80;74.70
14049;DHT22;7099;53.922;10.728;2023-02-12T23:55:51;7.80;74.60
14049;DHT22;7099;53.922;10.728;2023-02-12T23:59:56;7.80;75.10
